createdAt,value
2022-11-09T00:00:49.376Z,100432.75
2022-11-09T00:03:16.319Z,100433.59
2022-11-09T00:05:43.052Z,100443.69
2022-11-09T00:08:11.558Z,100442.88
2022-11-09T00:10:38.408Z,100439.06
2022-11-09T00:13:05.687Z,100441.25
2022-11-09T00:15:32.419Z,100434.97
2022-11-09T00:18:02.990Z,100435.78
2022-11-09T00:20:29.756Z,100438.25
2022-11-09T00:22:56.375Z,100420.47
2022-11-09T00:25:22.854Z,100421.31
2022-11-09T00:27:49.366Z,100412.03
2022-11-09T00:30:15.904Z,100410.91
2022-11-09T00:32:42.489Z,100410.09
2022-11-09T00:35:09.304Z,100409.84
2022-11-09T00:37:35.874Z,100412.56
2022-11-09T00:40:02.621Z,100414.75
2022-11-09T00:42:29.146Z,100410.38
2022-11-09T00:44:55.622Z,100411.50
2022-11-09T00:47:22.177Z,100407.63
2022-11-09T00:49:48.751Z,100401.91
2022-11-09T00:52:15.256Z,100401.63
2022-11-09T00:54:41.782Z,100400.25
2022-11-09T00:57:08.369Z,100396.19
2022-11-09T00:59:34.837Z,100397.84
2022-11-09T01:02:01.348Z,100401.69
2022-11-09T01:04:27.920Z,100388.56
2022-11-09T01:06:54.513Z,100394.03
2022-11-09T01:09:21.046Z,100390.75
2022-11-09T01:11:47.773Z,100396.47
2022-11-09T01:14:14.304Z,100396.22
2022-11-09T01:16:40.890Z,100389.69
2022-11-09T01:19:07.485Z,100382.59
2022-11-09T01:21:33.986Z,100382.88
2022-11-09T01:24:01.712Z,100384.78
2022-11-09T01:26:28.553Z,100384.50
2022-11-09T01:28:55.117Z,100390.50
2022-11-09T01:31:22.239Z,100394.06
2022-11-09T01:33:49.143Z,100394.34
2022-11-09T01:36:21.662Z,100384.22
2022-11-09T01:38:49.140Z,100393.75
2022-11-09T01:41:22.217Z,100394.28
2022-11-09T01:44:07.005Z,100386.31
2022-11-09T01:46:57.923Z,100383.59
2022-11-09T01:49:30.038Z,100386.09
2022-11-09T01:52:03.255Z,100386.84
2022-11-09T01:54:34.645Z,100389.56
2022-11-09T01:57:05.716Z,100392.84
2022-11-09T01:59:39.053Z,100394.47
2022-11-09T02:02:05.660Z,100393.06
2022-11-09T02:04:40.795Z,100384.81
2022-11-09T02:07:07.968Z,100388.13
2022-11-09T02:09:59.269Z,100385.41
2022-11-09T02:12:28.800Z,100384.59
2022-11-09T02:14:56.846Z,100384.00
2022-11-09T02:17:23.619Z,100385.94
2022-11-09T02:19:50.098Z,100380.47
2022-11-09T02:22:16.936Z,100367.88
2022-11-09T02:24:43.495Z,100372.75
2022-11-09T02:27:10.895Z,100371.69
2022-11-09T02:29:41.250Z,100373.84
2022-11-09T02:32:17.176Z,100374.09
2022-11-09T02:34:43.675Z,100378.19
2022-11-09T02:37:10.379Z,100375.72
2022-11-09T02:39:38.102Z,100377.38
2022-11-09T02:42:10.187Z,100388.78
2022-11-09T02:44:43.607Z,100380.06
2022-11-09T02:47:10.156Z,100385.25
2022-11-09T02:49:36.718Z,100381.13
2022-11-09T02:52:03.442Z,100383.84
2022-11-09T02:54:31.264Z,100389.31
2022-11-09T02:56:57.832Z,100384.13
2022-11-09T02:59:24.318Z,100389.84
2022-11-09T03:01:50.902Z,100388.19
2022-11-09T03:04:18.012Z,100383.22
2022-11-09T03:06:45.053Z,100391.41
2022-11-09T03:09:12.533Z,100385.41
2022-11-09T03:11:40.860Z,100376.94
2022-11-09T03:14:09.786Z,100374.53
2022-11-09T03:16:39.894Z,100367.16
2022-11-09T03:19:07.138Z,100374.53
2022-11-09T03:21:33.684Z,100378.06
2022-11-09T03:24:00.294Z,100377.81
2022-11-09T03:26:27.068Z,100387.13
2022-11-09T03:28:53.737Z,100381.38
2022-11-09T03:31:20.234Z,100371.81
2022-11-09T03:33:46.810Z,100373.44
2022-11-09T03:36:13.391Z,100375.09
2022-11-09T03:38:39.902Z,100380.53
2022-11-09T03:41:06.526Z,100371.81
2022-11-09T03:43:33.048Z,100391.19
2022-11-09T03:45:59.561Z,100384.88
2022-11-09T03:48:26.076Z,100390.09
2022-11-09T03:50:52.590Z,100388.19
2022-11-09T03:53:19.337Z,100394.72
2022-11-09T03:55:46.102Z,100389.28
2022-11-09T03:58:15.785Z,100389.28
2022-11-09T04:00:42.400Z,100373.44
2022-11-09T04:03:08.955Z,100385.47
2022-11-09T04:05:35.981Z,100389.00
2022-11-09T04:08:02.624Z,100380.25
2022-11-09T04:10:29.182Z,100382.16
2022-11-09T04:12:55.747Z,100363.59
2022-11-09T04:15:22.586Z,100365.25
2022-11-09T04:17:57.183Z,100361.19
2022-11-09T04:20:24.052Z,100354.88
2022-11-09T04:22:57.305Z,100359.84
2022-11-09T04:25:25.187Z,100358.19
2022-11-09T04:27:58.224Z,100366.38
2022-11-09T04:30:28.114Z,100369.13
2022-11-09T04:32:56.147Z,100369.13
2022-11-09T04:35:23.137Z,100373.19
2022-11-09T04:37:56.449Z,100377.25
2022-11-09T04:40:24.574Z,100373.94
2022-11-09T04:42:51.505Z,100375.88
2022-11-09T04:45:18.582Z,100376.38
2022-11-09T04:47:45.151Z,100380.75
2022-11-09T04:50:12.165Z,100377.22
2022-11-09T04:52:38.975Z,100369.00
2022-11-09T04:55:06.106Z,100373.41
2022-11-09T04:57:32.652Z,100380.50
2022-11-09T04:59:59.141Z,100382.69
2022-11-09T05:02:25.692Z,100378.28
2022-11-09T05:04:52.164Z,100379.34
2022-11-09T05:07:18.823Z,100379.34
2022-11-09T05:09:45.359Z,100377.22
2022-11-09T05:12:15.017Z,100386.75
2022-11-09T05:14:41.562Z,100392.69
2022-11-09T05:17:08.877Z,100389.97
2022-11-09T05:19:35.644Z,100383.69
2022-11-09T05:22:22.213Z,100381.78
2022-11-09T05:24:48.754Z,100387.56
2022-11-09T05:27:15.260Z,100392.75
2022-11-09T05:29:41.776Z,100382.16
2022-11-09T05:32:08.482Z,100384.88
2022-11-09T05:34:35.071Z,100384.88
2022-11-09T05:37:03.682Z,100389.78
2022-11-09T05:39:30.458Z,100387.34
2022-11-09T05:41:57.118Z,100377.25
2022-11-09T05:44:23.668Z,100381.06
2022-11-09T05:46:50.192Z,100384.88
2022-11-09T05:49:16.715Z,100372.28
2022-11-09T05:51:43.225Z,100378.88
2022-11-09T05:54:09.814Z,100375.28
2022-11-09T05:56:36.361Z,100367.34
2022-11-09T05:59:02.971Z,100376.63
2022-11-09T06:01:29.463Z,100381.84
2022-11-09T06:03:55.959Z,100375.56
2022-11-09T06:06:22.473Z,100388.13
2022-11-09T06:08:50.035Z,100393.03
2022-11-09T06:11:23.130Z,100384.81
2022-11-09T06:13:51.087Z,100389.78
2022-11-09T06:16:17.656Z,100387.88
2022-11-09T06:18:44.477Z,100394.16
2022-11-09T06:21:11.316Z,100396.66
2022-11-09T06:23:37.884Z,100402.94
2022-11-09T06:26:07.187Z,100407.59
2022-11-09T06:28:34.603Z,100398.06
2022-11-09T06:31:02.934Z,100404.31
2022-11-09T06:33:34.418Z,100405.72
2022-11-09T06:36:01.620Z,100413.41
2022-11-09T06:38:28.839Z,100407.94
2022-11-09T06:40:57.417Z,100413.16
2022-11-09T06:43:24.174Z,100418.91
2022-11-09T06:45:51.713Z,100426.31
2022-11-09T06:48:18.249Z,100429.03
2022-11-09T06:50:44.888Z,100431.25
2022-11-09T06:53:13.366Z,100431.00
2022-11-09T06:55:42.370Z,100435.63
2022-11-09T06:58:15.935Z,100441.41
2022-11-09T07:00:44.321Z,100446.88
2022-11-09T07:03:15.874Z,100454.81
2022-11-09T07:05:42.618Z,100456.16
2022-11-09T07:08:09.656Z,100447.97
2022-11-09T07:10:36.286Z,100450.69
2022-11-09T07:13:05.633Z,100451.28
2022-11-09T07:15:32.591Z,100458.09
2022-11-09T07:18:00.923Z,100456.16
2022-11-09T07:20:28.075Z,100458.34
2022-11-09T07:22:54.593Z,100463.81
2022-11-09T07:25:21.686Z,100462.16
2022-11-09T07:27:48.454Z,100461.56
2022-11-09T07:30:15.253Z,100461.56
2022-11-09T07:35:29.294Z,100468.13
2022-11-09T07:38:01.273Z,100465.97
2022-11-09T07:40:27.922Z,100463.81
2022-11-09T07:42:58.459Z,100465.44
2022-11-09T07:45:25.974Z,100479.69
2022-11-09T07:48:00.328Z,100480.00
2022-11-09T07:50:28.649Z,100476.19
2022-11-09T07:52:56.948Z,100483.28
2022-11-09T07:55:24.535Z,100484.69
2022-11-09T07:58:02.921Z,100485.28
2022-11-09T08:00:31.771Z,100485.84
2022-11-09T08:02:58.602Z,100502.31
2022-11-09T08:05:25.439Z,100486.72
2022-11-09T08:07:57.177Z,100493.00
2022-11-09T08:10:25.264Z,100485.38
2022-11-09T08:13:00.967Z,100491.97
2022-11-09T08:15:28.465Z,100491.97
2022-11-09T08:18:00.127Z,100490.63
2022-11-09T08:20:26.977Z,100494.81
2022-11-09T08:22:53.521Z,100481.69
2022-11-09T08:25:20.030Z,100475.97
2022-11-09T08:27:46.661Z,100487.50
2022-11-09T08:30:16.173Z,100488.03
2022-11-09T08:32:44.066Z,100493.50
2022-11-09T08:35:13.562Z,100488.63
2022-11-09T08:37:40.077Z,100485.63
2022-11-09T08:40:07.521Z,100492.75
2022-11-09T08:42:34.172Z,100490.56
2022-11-09T08:45:00.986Z,100477.47
2022-11-09T08:47:28.643Z,100485.72
2022-11-09T08:49:55.421Z,100493.97
2022-11-09T08:52:22.645Z,100490.19
2022-11-09T08:54:49.424Z,100487.47
2022-11-09T08:57:19.002Z,100482.06
2022-11-09T08:59:46.429Z,100488.94
2022-11-09T09:02:14.047Z,100485.66
2022-11-09T09:04:41.299Z,100488.44
2022-11-09T09:07:08.401Z,100486.38
2022-11-09T09:09:35.290Z,100499.06
2022-11-09T09:12:01.807Z,100494.22
2022-11-09T09:14:28.384Z,100496.13
2022-11-09T09:16:55.033Z,100503.88
2022-11-09T09:19:21.914Z,100499.00
2022-11-09T09:21:48.476Z,100511.38
2022-11-09T09:24:14.992Z,100506.66
2022-11-09T09:26:41.473Z,100512.38
2022-11-09T09:29:08.248Z,100518.13
2022-11-09T09:31:34.780Z,100520.88
2022-11-09T09:34:01.319Z,100520.44
2022-11-09T09:36:27.821Z,100528.66
2022-11-09T09:38:54.602Z,100527.06
2022-11-09T09:41:45.536Z,100526.25
2022-11-09T09:44:36.915Z,100527.84
2022-11-09T09:47:34.107Z,100528.66
2022-11-09T09:50:13.230Z,100527.00
2022-11-09T09:53:23.639Z,100530.91
2022-11-09T09:55:59.418Z,100527.88
2022-11-09T09:58:28.182Z,100527.06
2022-11-09T10:01:12.086Z,100538.56
2022-11-09T10:03:38.621Z,100533.16
2022-11-09T10:06:22.060Z,100535.91
2022-11-09T10:09:26.146Z,100542.75
2022-11-09T10:12:01.247Z,100534.25
2022-11-09T10:14:40.144Z,100540.63
2022-11-09T10:17:34.027Z,100552.41
2022-11-09T10:20:13.255Z,100547.19
2022-11-09T10:23:06.127Z,100550.25
2022-11-09T10:26:02.404Z,100555.16
2022-11-09T10:28:34.275Z,100548.09
2022-11-09T10:31:18.924Z,100554.41
2022-11-09T10:33:54.350Z,100553.06
2022-11-09T10:36:27.489Z,100542.63
2022-11-09T10:38:59.088Z,100538.53
2022-11-09T10:41:34.977Z,100537.69
2022-11-09T10:44:01.534Z,100532.19
2022-11-09T10:46:28.096Z,100530.53
2022-11-09T10:48:55.764Z,100530.81
2022-11-09T10:51:33.604Z,100539.34
2022-11-09T10:54:18.883Z,100538.25
2022-11-09T10:59:52.076Z,100533.91
2022-11-09T11:02:25.200Z,100526.78
2022-11-09T11:05:06.872Z,100533.63
2022-11-09T11:07:35.402Z,100533.94
2022-11-09T11:10:17.127Z,100538.03
2022-11-09T11:12:46.681Z,100531.16
2022-11-09T11:15:31.755Z,100534.19
2022-11-09T11:18:04.309Z,100539.41
2022-11-09T11:20:32.567Z,100537.75
2022-11-09T11:23:20.447Z,100543.81
2022-11-09T11:25:53.339Z,100541.06
2022-11-09T11:28:42.641Z,100546.81
2022-11-09T11:31:15.244Z,100532.56
2022-11-09T11:33:42.171Z,100538.59
2022-11-09T11:36:29.181Z,100536.72
2022-11-09T11:38:55.613Z,100540.53
2022-11-09T11:41:46.608Z,100540.53
2022-11-09T11:44:20.905Z,100538.59
2022-11-09T11:46:56.617Z,100543.84
2022-11-09T11:49:47.258Z,100547.69
2022-11-09T11:52:27.227Z,100552.09
2022-11-09T11:55:16.378Z,100547.97
2022-11-09T11:58:13.684Z,100544.94
2022-11-09T12:01:05.172Z,100546.03
2022-11-09T12:03:44.917Z,100546.84
2022-11-09T12:06:21.501Z,100547.69
2022-11-09T12:09:26.422Z,100539.47
2022-11-09T12:12:03.433Z,100542.47
2022-11-09T12:14:54.656Z,100541.63
2022-11-09T12:17:53.195Z,100541.63
2022-11-09T12:20:43.492Z,100537.50
2022-11-09T12:23:28.066Z,100537.78
2022-11-09T12:26:28.051Z,100537.19
2022-11-09T12:29:21.307Z,100525.69
2022-11-09T12:32:02.869Z,100525.69
2022-11-09T12:34:57.103Z,100535.84
2022-11-09T12:37:28.194Z,100530.91
2022-11-09T12:39:55.523Z,100530.09
2022-11-09T12:42:28.078Z,100529.53
2022-11-09T12:45:05.441Z,100535.03
2022-11-09T12:47:43.603Z,100530.34
2022-11-09T12:50:14.596Z,100534.44
2022-11-09T12:52:43.592Z,100534.72
2022-11-09T12:55:18.962Z,100539.41
2022-11-09T12:57:47.499Z,100539.41
2022-11-09T13:00:35.616Z,100530.59
2022-11-09T13:03:05.920Z,100533.06
2022-11-09T13:05:35.471Z,100534.44
2022-11-09T13:08:05.560Z,100541.34
2022-11-09T13:10:40.191Z,100539.97
2022-11-09T13:13:14.995Z,100542.44
2022-11-09T13:16:09.180Z,100537.78
2022-11-09T13:18:36.572Z,100548.75
2022-11-09T13:21:23.332Z,100548.50
2022-11-09T13:24:10.454Z,100560.03
2022-11-09T13:26:38.050Z,100558.63
2022-11-09T13:29:23.398Z,100558.63
2022-11-09T13:32:10.585Z,100562.19
2022-11-09T13:34:44.517Z,100560.78
2022-11-09T13:37:42.271Z,100566.25
2022-11-09T13:40:30.622Z,100568.97
2022-11-09T13:43:16.291Z,100570.06
2022-11-09T13:46:03.100Z,100561.81
2022-11-09T13:48:40.780Z,100568.97
2022-11-09T13:51:11.542Z,100566.78
2022-11-09T13:53:38.013Z,100561.84
2022-11-09T13:56:29.091Z,100567.09
2022-11-09T13:59:13.213Z,100567.09
2022-11-09T14:01:52.905Z,100565.72
2022-11-09T14:04:37.903Z,100565.19
2022-11-09T14:07:07.386Z,100567.38
2022-11-09T14:09:47.501Z,100570.13
2022-11-09T14:12:21.631Z,100577.56
2022-11-09T14:15:05.024Z,100577.25
2022-11-09T14:17:31.725Z,100570.66
2022-11-09T14:20:24.085Z,100583.81
2022-11-09T14:22:51.277Z,100589.56
2022-11-09T14:25:20.506Z,100580.75
2022-11-09T14:27:57.180Z,100586.22
2022-11-09T14:30:26.925Z,100577.13
2022-11-09T14:32:55.247Z,100573.53
2022-11-09T14:35:35.196Z,100584.22
2022-11-09T14:38:14.597Z,100585.56
2022-11-09T14:40:45.841Z,100582.81
2022-11-09T14:43:44.533Z,100577.59
2022-11-09T14:46:23.420Z,100576.19
2022-11-09T14:48:55.168Z,100589.28
2022-11-09T14:51:27.802Z,100590.16
2022-11-09T14:53:56.157Z,100578.03
2022-11-09T14:56:23.672Z,100582.66
2022-11-09T14:58:51.426Z,100581.00
2022-11-09T15:01:17.958Z,100579.63
2022-11-09T15:03:45.861Z,100585.09
2022-11-09T15:06:15.032Z,100588.38
2022-11-09T15:08:55.682Z,100588.34
2022-11-09T15:11:32.015Z,100589.69
2022-11-09T15:14:00.009Z,100584.19
2022-11-09T15:16:29.726Z,100583.31
2022-11-09T15:18:56.527Z,100588.25
2022-11-09T15:21:26.167Z,100585.47
2022-11-09T15:24:07.957Z,100583.22
2022-11-09T15:26:40.135Z,100594.72
2022-11-09T15:29:28.164Z,100595.22
2022-11-09T15:32:00.313Z,100597.41
2022-11-09T15:34:31.866Z,100602.56
2022-11-09T15:36:58.517Z,100598.44
2022-11-09T15:39:25.128Z,100594.31
2022-11-09T15:41:51.644Z,100594.00
2022-11-09T15:44:20.581Z,100596.19
2022-11-09T15:46:51.276Z,100592.88
2022-11-09T15:49:22.723Z,100592.28
2022-11-09T15:51:49.471Z,100595.56
2022-11-09T15:54:17.184Z,100592.50
2022-11-09T15:56:44.503Z,100600.19
2022-11-09T15:59:18.270Z,100592.78
2022-11-09T16:01:44.818Z,100603.41
2022-11-09T16:04:11.299Z,100605.34
2022-11-09T16:06:40.357Z,100610.22
2022-11-09T16:09:09.288Z,100609.69
2022-11-09T16:11:35.996Z,100619.78
2022-11-09T16:14:04.530Z,100624.72
2022-11-09T16:16:31.332Z,100617.84
2022-11-09T16:18:58.778Z,100617.84
2022-11-09T16:21:25.623Z,100619.47
2022-11-09T16:23:58.096Z,100621.91
2022-11-09T16:26:25.146Z,100624.06
2022-11-09T16:28:51.656Z,100618.88
2022-11-09T16:31:21.718Z,100624.59
2022-11-09T16:34:01.886Z,100630.56
2022-11-09T16:36:29.179Z,100625.41
2022-11-09T16:38:56.579Z,100630.31
2022-11-09T16:41:25.064Z,100619.69
2022-11-09T16:43:53.592Z,100622.69
2022-11-09T16:46:25.762Z,100619.31
2022-11-09T16:48:53.750Z,100627.03
2022-11-09T16:51:20.624Z,100625.88
2022-11-09T16:53:47.163Z,100637.59
2022-11-09T16:56:14.194Z,100651.13
2022-11-09T16:58:40.718Z,100652.78
2022-11-09T17:01:12.412Z,100650.56
2022-11-09T17:03:39.616Z,100655.47
2022-11-09T17:06:11.051Z,100657.13
2022-11-09T17:08:41.428Z,100663.09
2022-11-09T17:11:10.311Z,100660.94
2022-11-09T17:13:37.620Z,100667.88
2022-11-09T17:16:08.098Z,100672.06
2022-11-09T17:18:35.079Z,100685.22
2022-11-09T17:21:01.577Z,100680.84
2022-11-09T17:23:28.127Z,100679.75
2022-11-09T17:25:56.502Z,100694.53
2022-11-09T17:28:23.487Z,100689.06
2022-11-09T17:30:50.390Z,100693.88
2022-11-09T17:33:17.057Z,100685.47
2022-11-09T17:35:43.664Z,100688.94
2022-11-09T17:38:10.584Z,100701.16
2022-11-09T17:40:37.431Z,100691.72
2022-11-09T17:43:04.947Z,100690.97
2022-11-09T17:45:31.563Z,100689.50
2022-11-09T17:47:59.268Z,100699.03
2022-11-09T17:50:27.070Z,100702.31
2022-11-09T17:52:53.621Z,100693.50
2022-11-09T17:55:20.120Z,100695.72
2022-11-09T17:57:46.655Z,100704.44
2022-11-09T18:00:13.806Z,100707.44
2022-11-09T18:02:40.411Z,100700.56
2022-11-09T18:05:07.428Z,100713.09
2022-11-09T18:07:33.939Z,100707.63
2022-11-09T18:10:00.430Z,100708.72
2022-11-09T18:12:26.950Z,100716.66
2022-11-09T18:14:53.426Z,100717.47
2022-11-09T18:17:19.958Z,100718.88
2022-11-09T18:19:46.506Z,100718.06
2022-11-09T18:22:13.167Z,100716.13
2022-11-09T18:24:39.843Z,100723.19
2022-11-09T18:27:06.371Z,100726.72
2022-11-09T18:29:32.840Z,100729.63
2022-11-09T18:31:59.364Z,100732.19
2022-11-09T18:34:25.845Z,100736.31
2022-11-09T18:36:53.942Z,100738.69
2022-11-09T18:39:20.566Z,100738.63
2022-11-09T18:41:47.098Z,100729.81
2022-11-09T18:44:13.649Z,100731.75
2022-11-09T18:46:40.349Z,100733.06
2022-11-09T18:49:11.480Z,100741.75
2022-11-09T18:51:40.715Z,100755.34
2022-11-09T18:54:07.211Z,100748.25
2022-11-09T18:56:33.829Z,100753.88
2022-11-09T18:59:00.588Z,100763.97
2022-11-09T19:01:27.612Z,100760.19
2022-11-09T19:03:58.949Z,100772.44
2022-11-09T19:06:27.148Z,100761.00
2022-11-09T19:09:12.285Z,100772.09
2022-11-09T19:11:39.086Z,100770.44
2022-11-09T19:14:05.818Z,100768.13
2022-11-09T19:16:32.718Z,100775.19
2022-11-09T19:18:59.333Z,100776.72
2022-11-09T19:21:36.999Z,100778.28
2022-11-09T19:24:04.478Z,100786.16
2022-11-09T19:26:31.149Z,100783.41
2022-11-09T19:28:58.697Z,100794.25
2022-11-09T19:31:25.330Z,100794.03
2022-11-09T19:33:52.479Z,100799.16
2022-11-09T19:36:30.170Z,100792.84
2022-11-09T19:38:57.143Z,100813.06
2022-11-09T19:41:24.777Z,100807.09
2022-11-09T19:43:52.771Z,100808.69
2022-11-09T19:46:19.328Z,100811.88
2022-11-09T19:48:47.622Z,100814.03
2022-11-09T19:51:16.148Z,100818.75
2022-11-09T19:53:42.944Z,100827.56
2022-11-09T19:56:11.560Z,100831.94
2022-11-09T19:58:38.380Z,100837.75
2022-11-09T20:01:09.674Z,100846.06
2022-11-09T20:03:36.828Z,100848.00
2022-11-09T20:06:04.969Z,100846.94
2022-11-09T20:08:35.918Z,100850.97
2022-11-09T20:11:34.188Z,100860.50
2022-11-09T20:14:00.718Z,100863.66
2022-11-09T20:16:27.563Z,100862.34
2022-11-09T20:18:54.827Z,100862.34
2022-11-09T20:21:21.332Z,100869.34
2022-11-09T20:23:47.968Z,100876.97
2022-11-09T20:26:14.530Z,100873.75
2022-11-09T20:28:41.079Z,100874.25
2022-11-09T20:31:12.319Z,100875.41
2022-11-09T20:33:39.136Z,100884.91
2022-11-09T20:36:06.082Z,100877.44
2022-11-09T20:38:32.733Z,100879.72
2022-11-09T20:41:04.367Z,100878.53
2022-11-09T20:43:31.750Z,100883.41
2022-11-09T20:46:04.332Z,100892.41
2022-11-09T20:48:52.923Z,100893.16
2022-11-09T20:51:19.559Z,100899.94
2022-11-09T20:53:47.210Z,100900.88
2022-11-09T20:56:18.094Z,100901.81
2022-11-09T20:58:44.900Z,100897.47
2022-11-09T21:01:19.238Z,100904.09
2022-11-09T21:03:47.077Z,100920.72
2022-11-09T21:06:14.909Z,100919.78
2022-11-09T21:08:52.689Z,100918.59
2022-11-09T21:11:19.981Z,100937.72
2022-11-09T21:13:53.362Z,100930.44
2022-11-09T21:16:21.429Z,100941.75
2022-11-09T21:18:48.779Z,100940.59
2022-11-09T21:21:24.151Z,100945.09
2022-11-09T21:24:09.332Z,100951.28
2022-11-09T21:26:54.724Z,100958.66
2022-11-09T21:29:42.467Z,100956.25
2022-11-09T21:32:11.039Z,100957.78
2022-11-09T21:34:37.941Z,100956.00
2022-11-09T21:37:05.305Z,100964.81
2022-11-09T21:39:32.908Z,100961.16
2022-11-09T21:42:00.172Z,100968.25
2022-11-09T21:44:31.680Z,100976.94
2022-11-09T21:46:58.844Z,100982.50
2022-11-09T21:49:25.760Z,100978.56
2022-11-09T21:51:52.918Z,100988.31
2022-11-09T21:54:20.484Z,100983.56
2022-11-09T21:56:48.235Z,100999.25
2022-11-09T21:59:14.808Z,101004.22
2022-11-09T22:01:41.445Z,101006.84
2022-11-09T22:04:08.694Z,101012.19
2022-11-09T22:06:40.811Z,101024.53
2022-11-09T22:09:12.485Z,101013.59
2022-11-09T22:11:58.737Z,101005.28
2022-11-09T22:14:44.340Z,101015.75
2022-11-09T22:17:12.738Z,101019.19
2022-11-09T22:19:58.628Z,101017.53
2022-11-09T22:22:29.212Z,101022.53
2022-11-09T22:24:56.172Z,101024.66
2022-11-09T22:27:22.719Z,101022.75
2022-11-09T22:29:49.833Z,101027.84
2022-11-09T22:32:16.403Z,101027.13
2022-11-09T22:34:43.690Z,101027.84
2022-11-09T22:37:10.230Z,101041.03
2022-11-09T22:39:36.729Z,101035.19
2022-11-09T22:42:04.019Z,101041.28
2022-11-09T22:44:31.090Z,101041.97
2022-11-09T22:46:58.236Z,101049.41
2022-11-09T22:49:25.487Z,101057.41
2022-11-09T22:51:53.315Z,101055.97
2022-11-09T22:54:22.762Z,101057.03
2022-11-09T22:56:49.285Z,101068.31
2022-11-09T22:59:15.882Z,101067.22
2022-11-09T23:01:43.060Z,101073.63
2022-11-09T23:04:10.602Z,101078.00
2022-11-09T23:06:37.209Z,101084.41
2022-11-09T23:09:03.991Z,101078.50
2022-11-09T23:11:30.737Z,101091.53
2022-11-09T23:13:57.228Z,101093.69
2022-11-09T23:16:24.068Z,101098.75
2022-11-09T23:18:56.578Z,101094.50
2022-11-09T23:21:33.634Z,101101.59
2022-11-09T23:24:02.368Z,101106.19
2022-11-09T23:26:29.532Z,101108.81
2022-11-09T23:28:56.663Z,101117.97
2022-11-09T23:31:27.099Z,101117.09
2022-11-09T23:33:56.073Z,101127.84
2022-11-09T23:36:24.214Z,101119.47
2022-11-09T23:38:51.147Z,101119.09
2022-11-09T23:41:18.455Z,101126.91
2022-11-09T23:43:48.894Z,101137.34
2022-11-09T23:46:16.715Z,101140.97
2022-11-09T23:48:43.353Z,101134.31
2022-11-09T23:51:10.646Z,101137.66
2022-11-09T23:53:37.526Z,101150.44
2022-11-09T23:56:10.437Z,101143.56
2022-11-09T23:58:37.581Z,101149.50
